Time;durP1;ratioP1;P1;durP2;ratioP2;P2;SDS_P1;SDS_P2;PMS_P1;PMS_P2;Temp;Humidity;BMP_temperature;BMP_pressure;BME280_temperature;BME280_humidity;BME280_pressure;Samples;Min_cycle;Max_cycle;Signal;HPM_P1;HPM_P2
2023/07/12 00:04:52;;;;;;;6.80;2.28;;;;;;;14.71;59.72;100778.31;10481298;28;20056;-74
2023/07/12 00:09:54;;;;;;;5.53;2.30;;;;;;;14.56;60.52;100767.56;10465349;28;20540;-74
2023/07/12 00:14:57;;;;;;;3.83;2.40;;;;;;;14.95;59.66;100769.84;10483109;28;20518;-74
2023/07/12 00:19:59;;;;;;;4.43;2.40;;;;;;;14.92;59.90;100765.72;10461873;28;20052;-74
2023/07/12 00:25:02;;;;;;;7.68;2.08;;;;;;;14.95;59.57;100767.09;10460143;28;20041;-74
2023/07/12 00:30:21;;;;;;;3.38;2.10;;;;;;;15.20;59.13;100761.03;10479627;28;20053;-74
2023/07/12 00:35:25;;;;;;;3.65;2.15;;;;;;;15.47;58.58;100756.59;10458323;28;20037;-74
2023/07/12 00:40:36;;;;;;;4.88;2.30;;;;;;;15.85;57.82;100760.69;10452677;28;20049;-74
2023/07/12 00:45:39;;;;;;;4.25;1.98;;;;;;;15.84;57.46;100759.06;10471095;28;20052;-74
2023/07/12 00:50:42;;;;;;;4.93;2.40;;;;;;;16.05;57.35;100762.13;10477302;28;20037;-74
2023/07/12 00:56:01;;;;;;;4.88;2.45;;;;;;;15.85;57.85;100755.16;10463996;28;20411;-75
2023/07/12 01:01:04;;;;;;;8.00;2.28;;;;;;;15.83;58.93;100757.41;10481201;28;20056;-75
2023/07/12 01:06:09;;;;;;;4.35;2.13;;;;;;;15.77;59.33;100749.53;10487710;28;20052;-75
2023/07/12 01:11:14;;;;;;;4.18;2.47;;;;;;;15.92;58.98;100747.22;10456447;28;20056;-75
2023/07/12 01:16:19;;;;;;;4.78;2.33;;;;;;;15.98;58.94;100747.94;10465948;28;20041;-75
2023/07/12 01:21:24;;;;;;;3.47;2.38;;;;;;;16.01;59.49;100736.22;10480899;28;20041;-75
2023/07/12 01:26:32;;;;;;;3.13;2.53;;;;;;;16.01;59.23;100749.25;10483609;28;20059;-75
2023/07/12 01:31:36;;;;;;;3.85;2.03;;;;;;;16.00;59.33;100750.38;10488125;28;20051;-75
2023/07/12 01:36:38;;;;;;;5.13;2.53;;;;;;;15.83;59.67;100740.81;10442400;28;20049;-74
2023/07/12 01:41:40;;;;;;;5.38;2.65;;;;;;;15.82;59.57;100739.19;10465866;28;20040;-74
2023/07/12 01:46:43;;;;;;;5.07;2.70;;;;;;;15.75;59.56;100732.44;10481760;28;20049;-75
2023/07/12 01:51:45;;;;;;;3.80;2.08;;;;;;;15.65;60.34;100727.97;10487379;28;20044;-75
2023/07/12 01:56:50;;;;;;;6.35;2.63;;;;;;;15.83;59.85;100729.75;10469145;28;20033;-74
2023/07/12 02:01:54;;;;;;;7.32;2.78;;;;;;;16.17;59.64;100723.63;10471067;28;20044;-74
2023/07/12 02:06:56;;;;;;;3.58;2.35;;;;;;;16.19;59.85;100721.34;10467936;28;20045;-75
2023/07/12 02:12:00;;;;;;;4.95;2.67;;;;;;;16.36;60.94;100709.56;10461707;28;20107;-75
2023/07/12 02:17:09;;;;;;;7.55;2.58;;;;;;;16.52;61.25;100702.47;10434962;28;20045;-74
2023/07/12 02:22:11;;;;;;;4.65;2.45;;;;;;;16.67;61.44;100703.22;10479976;28;20029;-75
2023/07/12 02:27:13;;;;;;;5.10;2.40;;;;;;;16.72;62.28;100701.09;10481360;28;20068;-75
2023/07/12 02:32:15;;;;;;;3.55;2.20;;;;;;;16.82;62.40;100699.97;10480582;28;20033;-75
2023/07/12 02:37:17;;;;;;;3.63;1.98;;;;;;;16.94;62.57;100696.59;10457975;28;20388;-75
2023/07/12 02:42:20;;;;;;;3.92;2.55;;;;;;;16.91;63.17;100697.25;10486054;28;20048;-75
2023/07/12 02:47:22;;;;;;;3.60;2.53;;;;;;;16.96;64.42;100695.13;10485442;28;20040;-75
2023/07/12 02:52:25;;;;;;;4.40;2.47;;;;;;;16.88;65.98;100695.94;10477183;28;20053;-74
2023/07/12 02:57:27;;;;;;;4.30;2.50;;;;;;;16.62;69.75;100697.75;10459209;28;20048;-74
2023/07/12 03:02:30;;;;;;;4.00;2.65;;;;;;;16.73;70.17;100690.84;10484037;28;20053;-75
2023/07/12 03:07:34;;;;;;;4.38;2.38;;;;;;;17.04;69.81;100688.00;10466007;28;20046;-75
2023/07/12 03:12:36;;;;;;;3.20;2.40;;;;;;;17.14;70.22;100687.66;10478133;28;20407;-75
2023/07/12 03:17:38;;;;;;;5.57;2.17;;;;;;;17.22;70.69;100694.38;10484351;28;20045;-75
2023/07/12 03:22:41;;;;;;;4.05;2.60;;;;;;;17.53;70.00;100683.97;10461502;28;20067;-75
2023/07/12 03:27:43;;;;;;;3.60;2.60;;;;;;;18.02;68.12;100679.00;10484542;28;20052;-75
2023/07/12 03:32:45;;;;;;;5.38;2.75;;;;;;;18.37;66.74;100677.75;10482432;28;20601;-75
2023/07/12 03:37:47;;;;;;;4.03;2.28;;;;;;;18.59;65.18;100664.78;10470399;28;20533;-75
2023/07/12 03:42:49;;;;;;;3.50;2.22;;;;;;;18.86;65.38;100672.66;10478815;28;20044;-75
2023/07/12 03:47:51;;;;;;;3.20;2.10;;;;;;;19.20;64.17;100677.19;10479784;28;20040;-75
2023/07/12 03:52:54;;;;;;;3.05;2.00;;;;;;;19.62;61.48;100670.84;10464237;28;20890;-75
2023/07/12 03:57:56;;;;;;;3.78;2.00;;;;;;;19.85;58.83;100669.31;10481235;28;20064;-75
2023/07/12 04:02:58;;;;;;;2.90;1.65;;;;;;;20.12;56.28;100670.63;10478425;28;20530;-75
2023/07/12 04:08:00;;;;;;;6.43;1.90;;;;;;;20.87;54.55;100662.84;10479796;28;20060;-74
2023/07/12 04:13:03;;;;;;;4.28;1.90;;;;;;;21.38;51.50;100651.28;10479499;28;20539;-75
2023/07/12 04:18:05;;;;;;;12.70;2.22;;;;;;;21.60;50.44;100656.31;10462477;28;20033;-75
2023/07/12 04:23:07;;;;;;;2.22;1.63;;;;;;;21.76;48.05;100653.56;10472433;28;20143;-74
2023/07/12 04:28:09;;;;;;;2.63;1.63;;;;;;;22.13;45.88;100643.84;10419949;28;1445546;-74
2023/07/12 04:33:12;;;;;;;2.28;1.65;;;;;;;21.69;46.12;100648.56;10482930;28;20037;-74
2023/07/12 04:38:14;;;;;;;2.83;1.42;;;;;;;21.28;45.79;100642.22;10478283;28;20076;-74
2023/07/12 04:43:16;;;;;;;2.40;1.30;;;;;;;20.94;46.36;100651.09;10477323;28;20033;-74
2023/07/12 04:48:19;;;;;;;2.50;1.50;;;;;;;21.46;46.22;100655.88;10454153;28;20025;-74
2023/07/12 04:53:22;;;;;;;3.10;1.58;;;;;;;21.86;46.04;100656.63;10472336;28;20041;-74
2023/07/12 04:58:24;;;;;;;3.45;1.63;;;;;;;21.91;45.93;100658.38;10465928;28;20049;-74
2023/07/12 05:03:26;;;;;;;3.17;1.60;;;;;;;22.23;44.18;100660.09;10481815;28;20060;-74
2023/07/12 05:08:28;;;;;;;2.90;1.23;;;;;;;22.73;43.64;100657.72;10477769;28;20049;-75
2023/07/12 05:13:30;;;;;;;3.25;1.25;;;;;;;22.92;42.45;100657.81;10438556;28;20063;-75
2023/07/12 05:18:32;;;;;;;3.20;1.35;;;;;;;23.30;41.45;100656.25;10454808;28;20049;-75
2023/07/12 05:23:36;;;;;;;1.80;1.45;;;;;;;23.29;40.98;100649.84;10468987;28;20039;-75
2023/07/12 05:28:39;;;;;;;1.80;0.90;;;;;;;23.71;39.31;100641.53;10439287;28;20045;-75
2023/07/12 05:33:44;;;;;;;1.42;1.23;;;;;;;23.97;38.36;100651.25;10481266;28;20044;-74
2023/07/12 05:38:47;;;;;;;1.48;0.90;;;;;;;24.75;36.96;100641.41;10468006;28;20047;-76
2023/07/12 05:43:49;;;;;;;1.30;1.20;;;;;;;24.57;37.03;100637.50;10479531;28;20044;-74
2023/07/12 05:48:51;;;;;;;3.90;1.20;;;;;;;24.76;36.67;100634.59;10478028;28;20044;-73
2023/07/12 05:53:53;;;;;;;1.65;0.90;;;;;;;24.46;37.13;100625.28;10472712;28;20041;-74
2023/07/12 05:58:56;;;;;;;1.17;0.88;;;;;;;24.96;36.19;100613.66;10489629;28;20502;-75
2023/07/12 06:03:58;;;;;;;3.55;1.00;;;;;;;25.03;35.82;100623.41;10475423;28;20075;-76
2023/07/12 06:09:00;;;;;;;1.58;1.00;;;;;;;25.05;35.28;100615.41;10487536;28;20041;-75
2023/07/12 06:14:02;;;;;;;1.42;1.00;;;;;;;24.99;35.52;100605.66;10488252;28;20040;-75
2023/07/12 06:19:05;;;;;;;1.40;0.90;;;;;;;24.31;36.85;100615.84;10450988;28;20048;-75
2023/07/12 06:24:07;;;;;;;4.63;1.23;;;;;;;24.21;37.00;100603.22;10487875;28;20039;-75
2023/07/12 06:29:09;;;;;;;1.75;0.95;;;;;;;24.81;35.38;100600.59;10489193;28;20056;-76
2023/07/12 06:34:13;;;;;;;1.00;0.90;;;;;;;24.52;36.19;100623.81;10487538;28;20491;-75
2023/07/12 06:39:16;;;;;;;1.90;1.02;;;;;;;23.86;36.88;100613.81;10489376;28;20037;-75
2023/07/12 06:44:18;;;;;;;1.35;1.02;;;;;;;22.83;36.13;100610.44;10464486;28;20045;-75
2023/07/12 06:49:20;;;;;;;1.35;1.08;;;;;;;22.87;36.62;100610.50;10473094;28;20041;-75
2023/07/12 06:54:23;;;;;;;1.85;1.27;;;;;;;22.92;38.22;100598.25;10486757;28;20384;-73
2023/07/12 06:59:25;;;;;;;1.10;1.00;;;;;;;23.50;37.66;100599.06;10469959;28;20053;-73
2023/07/12 07:04:27;;;;;;;1.40;1.30;;;;;;;24.21;37.35;100589.22;10469393;28;20048;-73
2023/07/12 07:09:30;;;;;;;1.95;1.05;;;;;;;24.52;36.29;100601.38;10487655;28;20495;-73
2023/07/12 07:14:33;;;;;;;4.47;1.38;;;;;;;24.49;35.44;100602.13;10484955;28;20053;-73
2023/07/12 07:19:35;;;;;;;2.60;1.20;;;;;;;24.05;35.25;100597.75;10487025;28;20073;-73
2023/07/12 07:24:37;;;;;;;0.90;0.90;;;;;;;23.48;36.42;100595.84;10484623;28;20049;-73
2023/07/12 07:29:39;;;;;;;1.23;1.00;;;;;;;22.78;38.21;100581.91;10481771;28;20053;-73
2023/07/12 07:34:42;;;;;;;1.30;1.20;;;;;;;22.10;38.78;100571.09;10478085;28;20033;-73
2023/07/12 07:39:45;;;;;;;1.55;1.15;;;;;;;21.99;39.28;100576.34;10453060;28;20056;-73
2023/07/12 07:44:48;;;;;;;1.52;1.08;;;;;;;22.13;39.55;100564.78;10471242;28;20044;-73
2023/07/12 07:49:50;;;;;;;1.73;1.23;;;;;;;22.09;39.51;100575.88;10483333;28;20040;-73
2023/07/12 07:54:52;;;;;;;1.80;1.23;;;;;;;21.62;39.06;100581.34;10467845;28;20056;-73
2023/07/12 07:59:55;;;;;;;4.82;1.42;;;;;;;20.79;40.79;100580.09;10486244;28;20508;-73
2023/07/12 08:04:58;;;;;;;2.92;0.90;;;;;;;20.70;41.54;100590.59;10466064;28;20044;-72
2023/07/12 08:10:00;;;;;;;2.33;1.00;;;;;;;20.43;42.13;100594.91;10484908;28;20048;-72
2023/07/12 08:15:02;;;;;;;2.33;1.27;;;;;;;19.78;43.36;100616.13;10456989;28;20049;-72
2023/07/12 08:20:08;;;;;;;1.48;1.15;;;;;;;19.65;42.97;100623.66;10485209;28;20041;-73
2023/07/12 08:25:11;;;;;;;1.73;1.02;;;;;;;19.60;42.64;100617.44;10485301;28;20060;-73
2023/07/12 08:30:13;;;;;;;4.72;1.23;;;;;;;19.68;43.25;100606.25;10461382;28;20041;-73
2023/07/12 08:35:15;;;;;;;1.95;1.40;;;;;;;19.89;43.12;100614.53;10481265;28;20511;-73
2023/07/12 08:40:18;;;;;;;2.63;1.17;;;;;;;19.95;43.50;100606.75;10449152;28;20047;-73
2023/07/12 08:45:26;;;;;;;1.40;1.30;;;;;;;19.79;44.22;100603.84;10463780;28;20037;-74
2023/07/12 08:50:37;;;;;;;2.67;1.33;;;;;;;19.91;44.66;100603.88;10471978;28;20033;-73
2023/07/12 08:55:40;;;;;;;1.60;1.38;;;;;;;20.29;44.29;100586.03;10463799;28;20037;-73
2023/07/12 09:00:43;;;;;;;1.52;1.10;;;;;;;20.39;43.39;100597.53;10483935;28;20057;-73
2023/07/12 09:05:45;;;;;;;1.30;1.20;;;;;;;20.39;43.17;100591.16;10478909;28;20045;-73
2023/07/12 09:10:57;;;;;;;1.30;1.20;;;;;;;20.29;43.10;100594.38;10477602;28;20037;-73
2023/07/12 09:16:00;;;;;;;3.83;1.13;;;;;;;20.57;43.02;100611.28;10472694;28;20052;-72
2023/07/12 09:21:33;;;;;;;1.92;1.48;;;;;;;20.68;43.20;100616.03;10444182;28;20057;-73
2023/07/12 09:26:35;;;;;;;1.92;1.40;;;;;;;21.07;43.29;100591.31;10480695;28;20045;-73
2023/07/12 09:31:40;;;;;;;2.83;1.20;;;;;;;21.14;42.17;100588.72;10482356;28;20048;-73
2023/07/12 09:36:42;;;;;;;3.03;1.35;;;;;;;20.56;43.30;100590.94;10488359;28;20443;-74
2023/07/12 09:41:50;;;;;;;1.67;1.00;;;;;;;20.53;42.67;100590.84;10464860;28;20041;-74
2023/07/12 09:47:02;;;;;;;1.73;1.17;;;;;;;20.13;43.28;100580.31;10474135;28;20060;-74
2023/07/12 09:52:08;;;;;;;1.38;1.05;;;;;;;20.05;43.79;100573.72;10487860;28;20411;-74
2023/07/12 09:57:42;;;;;;;3.53;1.15;;;;;;;19.96;43.94;100564.66;10459860;28;20411;-74
2023/07/12 10:03:11;;;;;;;1.58;0.88;;;;;;;19.55;44.32;100569.19;10480744;28;20045;-74
2023/07/12 10:08:15;;;;;;;2.38;1.17;;;;;;;19.78;43.58;100557.66;10476535;28;20044;-74
2023/07/12 10:13:24;;;;;;;1.80;1.13;;;;;;;19.56;44.00;100553.31;10466714;28;20052;-74
2023/07/12 10:18:29;;;;;;;3.15;1.45;;;;;;;19.54;43.86;100555.63;10487998;28;20044;-75
2023/07/12 10:23:39;;;;;;;2.22;1.17;;;;;;;19.73;43.90;100547.56;10468245;28;20068;-74
2023/07/12 10:29:14;;;;;;;1.60;1.17;;;;;;;19.87;43.92;100536.91;10466773;28;20075;-74
2023/07/12 10:34:38;;;;;;;2.40;1.00;;;;;;;19.93;43.64;100523.56;10457350;28;20529;-74
2023/07/12 10:39:40;;;;;;;2.17;1.10;;;;;;;20.12;42.67;100521.00;10469189;28;20052;-73
2023/07/12 10:44:49;;;;;;;3.30;1.25;;;;;;;20.11;42.89;100510.22;10469528;28;20052;-73
2023/07/12 10:50:00;;;;;;;2.13;1.20;;;;;;;20.23;41.30;100514.97;10476844;28;20057;-73
2023/07/12 10:55:03;;;;;;;1.45;1.05;;;;;;;20.17;41.63;100504.09;10442316;28;20039;-72
2023/07/12 11:00:12;;;;;;;1.10;1.00;;;;;;;20.08;41.64;100495.00;10485908;28;20072;-73
2023/07/12 11:06:06;;;;;;;1.58;1.00;;;;;;;20.04;42.13;100494.09;10470335;28;20051;-73
2023/07/12 11:11:08;;;;;;;1.13;0.82;;;;;;;20.20;41.91;100476.69;10381565;28;20607;-72
2023/07/12 11:16:17;;;;;;;1.35;0.95;;;;;;;20.30;40.91;100473.41;10448241;28;20040;-72
2023/07/12 11:21:50;;;;;;;2.28;1.00;;;;;;;20.34;39.78;100461.22;10482923;28;20041;-72
2023/07/12 11:26:54;;;;;;;1.38;1.25;;;;;;;20.35;40.37;100453.66;10484105;28;20041;-72
2023/07/12 11:32:16;;;;;;;1.75;0.75;;;;;;;20.50;39.92;100452.97;10478862;28;20037;-72
2023/07/12 11:37:30;;;;;;;1.05;0.90;;;;;;;20.45;37.75;100453.19;10458166;28;20056;-72
2023/07/12 11:42:32;;;;;;;2.60;1.25;;;;;;;20.38;39.21;100441.81;10466974;28;20056;-72
2023/07/12 11:47:34;;;;;;;1.40;1.10;;;;;;;20.51;39.71;100439.84;10484193;28;20033;-73
2023/07/12 11:52:37;;;;;;;1.27;1.02;;;;;;;20.52;39.73;100430.31;10484801;28;20048;-73
2023/07/12 11:57:39;;;;;;;1.67;0.98;;;;;;;20.56;39.49;100429.25;10483709;28;20045;-71
2023/07/12 12:02:47;;;;;;;2.22;1.10;;;;;;;20.70;39.66;100417.72;10482403;28;20042;-73
2023/07/12 12:07:50;;;;;;;1.30;0.80;;;;;;;21.02;38.77;100413.84;10481288;28;20037;-71
2023/07/12 12:12:53;;;;;;;1.92;1.40;;;;;;;20.89;38.94;100394.72;10467550;28;20057;-72
2023/07/12 12:17:57;;;;;;;1.30;1.10;;;;;;;20.96;39.49;100394.91;10482690;28;20048;-72
2023/07/12 12:23:38;;;;;;;4.15;1.33;;;;;;;21.21;39.50;100401.97;10482791;28;20033;-72
2023/07/12 12:28:42;;;;;;;4.25;1.17;;;;;;;21.39;39.28;100390.50;10481474;28;20059;-74
2023/07/12 12:33:50;;;;;;;1.70;0.98;;;;;;;21.45;39.08;100401.03;10475708;28;20037;-73
2023/07/12 12:39:05;;;;;;;1.48;1.10;;;;;;;21.49;39.83;100387.16;10463252;28;20057;-74
2023/07/12 12:44:13;;;;;;;1.52;1.00;;;;;;;21.54;39.15;100404.47;10479098;28;20041;-74
2023/07/12 12:49:23;;;;;;;1.60;0.75;;;;;;;21.53;38.28;100399.25;10477271;28;20037;-73
2023/07/12 12:54:26;;;;;;;1.77;1.30;;;;;;;21.81;38.05;100385.94;10431801;28;20538;-74
2023/07/12 12:59:28;;;;;;;1.08;0.90;;;;;;;21.83;37.60;100383.59;10481823;28;20495;-74
2023/07/12 13:04:31;;;;;;;2.47;1.25;;;;;;;21.79;37.59;100382.72;10477275;28;20046;-74
2023/07/12 13:09:33;;;;;;;1.27;1.17;;;;;;;21.87;37.68;100386.50;10476868;28;20045;-74
2023/07/12 13:14:35;;;;;;;3.03;1.15;;;;;;;21.84;35.85;100384.41;10472779;28;20041;-73
2023/07/12 13:19:37;;;;;;;2.47;1.02;;;;;;;21.75;36.01;100381.00;10492509;28;20044;-74
2023/07/12 13:24:40;;;;;;;2.53;1.10;;;;;;;21.75;35.09;100375.44;10483781;28;20511;-74
2023/07/12 13:29:43;;;;;;;1.63;0.85;;;;;;;21.54;36.75;100378.53;10481517;28;20515;-73
2023/07/12 13:34:46;;;;;;;2.67;1.10;;;;;;;21.51;36.23;100366.06;10465731;28;20045;-73
2023/07/12 13:39:49;;;;;;;1.75;1.30;;;;;;;21.52;36.93;100366.88;10456601;28;20060;-73
2023/07/12 13:44:51;;;;;;;2.70;1.30;;;;;;;21.39;36.36;100370.97;10450831;28;20060;-73
2023/07/12 13:49:55;;;;;;;5.38;1.40;;;;;;;21.30;35.47;100376.72;10450640;28;20063;-74
2023/07/12 13:54:57;;;;;;;1.60;1.13;;;;;;;21.23;34.33;100371.72;10474404;28;20049;-74
2023/07/12 14:00:00;;;;;;;3.45;1.02;;;;;;;21.25;33.94;100371.41;10466479;28;20040;-75
2023/07/12 14:05:05;;;;;;;1.70;1.00;;;;;;;21.17;34.41;100362.00;10469231;28;20045;-73
2023/07/12 14:10:14;;;;;;;2.03;0.90;;;;;;;21.04;34.48;100363.25;10452426;28;20414;-75
2023/07/12 14:15:22;;;;;;;2.00;1.20;;;;;;;21.00;35.61;100362.34;10463015;28;20037;-74
2023/07/12 14:20:26;;;;;;;1.90;1.10;;;;;;;21.03;35.81;100367.22;10470397;28;20046;-75
2023/07/12 14:25:29;;;;;;;3.47;1.13;;;;;;;21.03;35.39;100356.88;10475985;28;20072;-75
2023/07/12 14:30:31;;;;;;;1.20;0.90;;;;;;;20.88;35.17;100359.63;10488632;28;20056;-75
2023/07/12 14:35:33;;;;;;;1.80;1.30;;;;;;;20.98;35.19;100365.47;10465547;28;20052;-75
2023/07/12 14:40:36;;;;;;;1.52;1.02;;;;;;;21.03;35.67;100368.03;10485400;28;20059;-74
2023/07/12 14:45:38;;;;;;;1.85;1.10;;;;;;;20.94;35.57;100359.00;10488743;28;20037;-74
2023/07/12 14:50:40;;;;;;;3.90;1.30;;;;;;;20.93;36.02;100351.00;10475219;28;20042;-73
2023/07/12 14:55:43;;;;;;;1.55;1.10;;;;;;;20.86;36.53;100357.22;10486523;28;20041;-75
2023/07/12 15:00:45;;;;;;;1.25;1.10;;;;;;;20.91;36.90;100345.78;10472340;28;20053;-74
2023/07/12 15:05:48;;;;;;;2.97;1.23;;;;;;;20.82;36.10;100344.31;10450785;28;20036;-74
2023/07/12 15:10:51;;;;;;;3.00;1.00;;;;;;;20.69;36.33;100341.63;10464444;28;20033;-74
2023/07/12 15:15:55;;;;;;;2.20;1.25;;;;;;;20.79;36.25;100345.84;10484657;28;20064;-74
2023/07/12 15:21:11;;;;;;;1.67;1.20;;;;;;;20.84;37.40;100339.22;10486724;28;20135;-74
2023/07/12 15:26:14;;;;;;;1.43;0.97;;;;;;;20.76;38.70;100336.22;10453670;28;20052;-75
2023/07/12 15:31:28;;;;;;;3.53;1.63;;;;;;;20.75;39.80;100333.78;10478036;28;20044;-76
2023/07/12 15:36:32;;;;;;;2.85;1.20;;;;;;;20.60;39.64;100332.59;10436483;28;20411;-75
2023/07/12 15:41:35;;;;;;;1.65;1.15;;;;;;;20.56;37.94;100336.44;10481816;28;20041;-73
2023/07/12 15:46:37;;;;;;;4.95;1.25;;;;;;;20.61;37.92;100333.38;10473465;28;20054;-74
2023/07/12 15:51:42;;;;;;;3.40;1.10;;;;;;;20.58;36.96;100332.13;10449418;28;20033;-74
2023/07/12 15:56:45;;;;;;;2.17;1.00;;;;;;;20.63;37.13;100325.47;10475883;28;20041;-74
2023/07/12 16:01:47;;;;;;;4.00;1.15;;;;;;;20.66;37.28;100322.81;10475432;28;20032;-73
2023/07/12 16:06:49;;;;;;;1.70;1.30;;;;;;;20.61;37.53;100319.44;10470029;28;20063;-74
2023/07/12 16:11:51;;;;;;;3.05;1.23;;;;;;;20.77;37.31;100301.59;10448582;28;20530;-72
2023/07/12 16:16:54;;;;;;;1.85;1.08;;;;;;;20.81;37.85;100293.31;10463691;28;20049;-75
2023/07/12 16:21:57;;;;;;;1.70;1.33;;;;;;;20.76;37.45;100286.03;10480202;28;20049;-74
2023/07/12 16:26:59;;;;;;;1.70;1.30;;;;;;;20.69;38.01;100288.63;10470171;28;20053;-74
2023/07/12 16:32:01;;;;;;;5.68;1.67;;;;;;;20.62;38.24;100288.44;10442690;28;20050;-74
2023/07/12 16:37:19;;;;;;;1.65;1.33;;;;;;;20.53;38.41;100287.78;10444021;28;20056;-74
2023/07/12 16:42:27;;;;;;;1.98;1.00;;;;;;;20.51;38.49;100280.97;10443920;28;20187;-72
2023/07/12 16:47:29;;;;;;;2.63;1.70;;;;;;;20.52;38.51;100275.03;10409896;28;20045;-74
2023/07/12 16:52:32;;;;;;;2.60;1.50;;;;;;;20.46;38.18;100262.50;10448802;28;20488;-74
2023/07/12 16:57:34;;;;;;;1.83;1.23;;;;;;;20.43;38.50;100268.78;10443875;28;20049;-74
2023/07/12 17:02:36;;;;;;;5.38;1.55;;;;;;;20.40;38.99;100258.31;10441461;28;20053;-74
2023/07/12 17:07:39;;;;;;;6.45;1.73;;;;;;;20.36;38.98;100251.84;10446445;28;20501;-74
2023/07/12 17:12:41;;;;;;;4.40;1.85;;;;;;;20.30;39.44;100248.50;10482050;28;20040;-73
2023/07/12 17:17:46;;;;;;;2.92;1.63;;;;;;;20.23;39.07;100239.16;10475484;28;20037;-75
2023/07/12 17:22:49;;;;;;;3.97;1.92;;;;;;;20.23;39.89;100228.81;10471124;28;20048;-75
2023/07/12 17:27:52;;;;;;;4.65;1.80;;;;;;;20.18;40.04;100221.53;10469792;28;20049;-75
2023/07/12 17:32:54;;;;;;;5.03;2.05;;;;;;;20.16;40.60;100209.13;10464842;28;20045;-74
2023/07/12 17:37:56;;;;;;;6.82;4.25;;;;;;;20.04;41.34;100209.97;10473164;28;20032;-73
2023/07/12 17:42:58;;;;;;;2.95;2.22;;;;;;;19.93;41.37;100211.66;10483298;28;20049;-76
2023/07/12 17:48:00;;;;;;;5.63;2.00;;;;;;;19.85;41.40;100196.72;10488442;28;20052;-75
2023/07/12 17:53:04;;;;;;;8.40;1.95;;;;;;;19.83;42.28;100192.69;10478536;28;20060;-75
2023/07/12 17:58:06;;;;;;;4.43;1.90;;;;;;;19.77;42.10;100183.75;10479463;28;20041;-75
2023/07/12 18:03:26;;;;;;;6.00;2.38;;;;;;;19.69;43.02;100181.13;10481316;28;20057;-76
2023/07/12 18:08:28;;;;;;;5.82;2.10;;;;;;;19.58;43.00;100167.69;10471410;28;20096;-74
2023/07/12 18:13:33;;;;;;;6.75;2.53;;;;;;;19.51;43.05;100170.25;10489650;28;20060;-75
2023/07/12 18:18:35;;;;;;;4.78;2.10;;;;;;;19.43;43.38;100160.06;10457024;28;20053;-74
2023/07/12 18:23:37;;;;;;;5.88;1.88;;;;;;;19.35;43.48;100158.25;10483508;28;20044;-75
2023/07/12 18:28:40;;;;;;;4.22;1.88;;;;;;;19.27;43.50;100161.97;10485146;28;20048;-75
2023/07/12 18:33:42;;;;;;;10.13;2.95;;;;;;;19.17;43.43;100154.09;10484641;28;20407;-76
2023/07/12 18:38:46;;;;;;;5.45;2.67;;;;;;;19.10;43.37;100163.06;10457223;28;20064;-75
2023/07/12 18:43:49;;;;;;;3.78;2.15;;;;;;;18.98;44.28;100158.31;10477267;28;20048;-75
2023/07/12 18:48:51;;;;;;;9.48;2.30;;;;;;;18.93;44.96;100166.09;10470781;28;20048;-76
2023/07/12 18:53:54;;;;;;;6.60;3.50;;;;;;;18.89;46.32;100165.13;10471470;28;20056;-74
2023/07/12 18:58:59;;;;;;;9.15;4.38;;;;;;;18.76;47.06;100156.00;10466781;28;20047;-75
2023/07/12 19:04:05;;;;;;;4.05;1.70;;;;;;;18.62;48.25;100153.53;10474915;28;20052;-76
2023/07/12 19:09:08;;;;;;;4.00;2.53;;;;;;;18.56;49.16;100154.09;10466056;28;20041;-77
2023/07/12 19:14:19;;;;;;;3.10;2.35;;;;;;;18.48;49.20;100149.47;10456595;28;20048;-78
2023/07/12 19:19:21;;;;;;;3.67;2.15;;;;;;;18.46;49.27;100149.81;10470031;28;20045;-77
2023/07/12 19:24:23;;;;;;;3.72;1.92;;;;;;;18.59;48.99;100137.56;10486283;28;20499;-75
2023/07/12 19:29:26;;;;;;;2.50;1.85;;;;;;;18.65;48.82;100138.16;10465264;28;20048;-74
2023/07/12 19:34:29;;;;;;;6.15;2.13;;;;;;;18.67;47.76;100119.19;10482850;28;20037;-74
2023/07/12 19:39:32;;;;;;;3.50;1.85;;;;;;;18.62;48.25;100122.97;10480080;28;20057;-75
2023/07/12 19:44:35;;;;;;;3.72;2.10;;;;;;;18.62;48.25;100122.16;10455301;28;20040;-75
2023/07/12 19:49:37;;;;;;;5.05;2.33;;;;;;;18.54;48.74;100120.28;10472088;28;20613;-74
2023/07/12 19:54:40;;;;;;;13.98;3.33;;;;;;;18.31;49.30;100114.38;10456015;28;20033;-75
2023/07/12 19:59:43;;;;;;;4.07;2.70;;;;;;;18.10;49.55;100113.66;10485093;28;20048;-73
2023/07/12 20:04:45;;;;;;;3.67;2.10;;;;;;;17.96;50.22;100102.88;10456047;28;20072;-74
2023/07/12 20:09:48;;;;;;;4.22;2.38;;;;;;;18.05;50.30;100109.97;10467228;28;20049;-73
2023/07/12 20:14:50;;;;;;;4.63;2.63;;;;;;;18.18;50.14;100105.22;10471524;28;20530;-73
2023/07/12 20:19:52;;;;;;;6.20;2.25;;;;;;;18.16;50.52;100104.75;10468769;28;20037;-74
2023/07/12 20:24:54;;;;;;;7.03;2.25;;;;;;;18.11;50.67;100110.53;10477792;28;20666;-74
2023/07/12 20:29:57;;;;;;;5.35;2.83;;;;;;;17.98;51.09;100098.59;10439492;28;20052;-74
2023/07/12 20:35:00;;;;;;;7.18;2.33;;;;;;;17.86;51.12;100092.19;10442246;28;20143;-75
2023/07/12 20:40:06;;;;;;;6.35;2.30;;;;;;;17.81;50.88;100103.53;10475253;28;20037;-76
2023/07/12 20:45:08;;;;;;;7.97;2.45;;;;;;;17.71;51.31;100099.25;10459484;28;20045;-75
2023/07/12 20:50:11;;;;;;;4.53;2.22;;;;;;;17.69;51.77;100099.56;10470845;28;20443;-74
2023/07/12 20:55:19;;;;;;;4.53;2.33;;;;;;;17.59;51.69;100091.66;10482798;28;20411;-76
2023/07/12 21:00:22;;;;;;;3.55;2.17;;;;;;;17.62;52.01;100092.91;10479285;28;20053;-76
2023/07/12 21:05:26;;;;;;;6.70;2.30;;;;;;;17.61;52.01;100086.56;10484205;28;20068;-74
2023/07/12 21:10:28;;;;;;;9.32;2.40;;;;;;;17.58;52.32;100084.47;10448498;28;20067;-74
2023/07/12 21:15:31;;;;;;;5.55;2.00;;;;;;;17.66;52.45;100083.56;10475344;28;20029;-74
2023/07/12 21:20:34;;;;;;;9.90;2.40;;;;;;;17.62;52.49;100087.38;10482059;28;20065;-74
2023/07/12 21:25:36;;;;;;;6.25;2.30;;;;;;;17.30;53.59;100078.69;10483450;28;20048;-74
2023/07/12 21:30:39;;;;;;;6.18;2.53;;;;;;;17.19;53.82;100085.81;10485374;28;20040;-74
2023/07/12 21:35:43;;;;;;;5.63;2.67;;;;;;;17.01;54.09;100078.75;10472651;28;20053;-74
2023/07/12 21:40:45;;;;;;;6.80;2.40;;;;;;;16.88;54.54;100077.91;10459048;28;20245;-76
2023/07/12 21:45:48;;;;;;;6.55;2.20;;;;;;;16.94;54.31;100081.28;10459024;28;20049;-76
2023/07/12 21:50:50;;;;;;;12.30;2.63;;;;;;;16.99;54.11;100079.09;10488950;28;20041;-75
2023/07/12 21:55:52;;;;;;;0.50;0.50;;;;;;;16.76;54.15;100099.97;10485964;28;20491;-75
2023/07/12 22:00:54;;;;;;;8.00;1.90;;;;;;;16.71;53.74;100103.75;10484514;28;20037;-74
2023/07/12 22:05:56;;;;;;;5.25;1.40;;;;;;;16.61;54.04;100094.97;10474087;28;20037;-73
2023/07/12 22:11:08;;;;;;;3.55;1.90;;;;;;;16.66;54.13;100095.63;10480146;28;20522;-75
2023/07/12 22:16:11;;;;;;;6.85;1.70;;;;;;;16.69;54.35;100083.09;10455263;28;20033;-75
2023/07/12 22:21:14;;;;;;;2.80;1.95;;;;;;;16.81;54.01;100094.22;10467498;28;20041;-75
2023/07/12 22:26:26;;;;;;;2.95;1.27;;;;;;;16.84;53.80;100088.03;10452616;28;20052;-75
2023/07/12 22:31:28;;;;;;;2.22;1.40;;;;;;;16.95;53.84;100078.16;10449884;28;20446;-75
2023/07/12 22:36:30;;;;;;;4.93;1.75;;;;;;;16.88;53.93;100087.03;10470372;28;20049;-74
2023/07/12 22:41:33;;;;;;;2.60;1.60;;;;;;;16.68;54.68;100085.03;10485332;28;20055;-73
2023/07/12 22:46:36;;;;;;;3.08;1.60;;;;;;;16.70;55.21;100082.75;10488833;28;20053;-73
2023/07/12 22:51:38;;;;;;;2.83;1.58;;;;;;;16.79;55.49;100082.69;10477780;28;20483;-73
2023/07/12 22:56:40;;;;;;;3.65;1.90;;;;;;;16.90;54.75;100080.34;10470342;28;20044;-73
2023/07/12 23:01:45;;;;;;;2.00;1.40;;;;;;;16.91;54.86;100080.00;10455412;28;20045;-73
2023/07/12 23:06:48;;;;;;;6.03;1.52;;;;;;;16.87;53.85;100077.09;10444759;28;20045;-73
2023/07/12 23:11:50;;;;;;;3.42;1.50;;;;;;;16.78;54.24;100073.56;10476932;28;20036;-73
2023/07/12 23:16:53;;;;;;;2.47;1.25;;;;;;;16.81;53.60;100081.19;10487701;28;20128;-73
2023/07/12 23:21:56;;;;;;;4.20;1.40;;;;;;;16.96;53.33;100078.97;10482796;28;20049;-74